createdAt,value
2023-02-19T00:00:57.533Z,9.40
2023-02-19T00:03:24.155Z,8.48
2023-02-19T00:05:50.550Z,8.20
2023-02-19T00:08:16.993Z,8.30
2023-02-19T00:10:43.373Z,10.48
2023-02-19T00:13:09.733Z,9.05
2023-02-19T00:15:36.237Z,8.52
2023-02-19T00:18:02.620Z,6.88
2023-02-19T00:20:29.024Z,6.50
2023-02-19T00:22:55.649Z,8.63
2023-02-19T00:25:21.981Z,8.30
2023-02-19T00:27:48.353Z,6.93
2023-02-19T00:30:14.868Z,7.43
2023-02-19T00:32:41.255Z,6.28
2023-02-19T00:35:10.625Z,8.80
2023-02-19T00:37:40.098Z,7.43
2023-02-19T00:40:06.656Z,6.13
2023-02-19T00:42:33.137Z,7.25
2023-02-19T00:44:59.495Z,7.40
2023-02-19T00:47:25.819Z,7.03
2023-02-19T00:49:52.199Z,6.03
2023-02-19T00:52:18.615Z,8.27
2023-02-19T00:54:45.011Z,8.35
2023-02-19T00:57:13.630Z,7.38
2023-02-19T00:59:40.022Z,7.70
2023-02-19T01:02:06.338Z,7.25
2023-02-19T01:04:32.748Z,8.77
2023-02-19T01:06:59.094Z,8.13
2023-02-19T01:09:25.475Z,8.63
2023-02-19T01:11:51.910Z,8.30
2023-02-19T01:14:18.375Z,9.85
2023-02-19T01:16:44.746Z,8.45
2023-02-19T01:19:11.795Z,7.30
2023-02-19T01:21:39.619Z,8.52
2023-02-19T01:24:06.013Z,8.68
2023-02-19T01:26:33.148Z,8.88
2023-02-19T01:29:00.157Z,8.80
2023-02-19T01:31:26.711Z,9.65
2023-02-19T01:33:55.112Z,9.15
2023-02-19T01:36:21.767Z,9.40
2023-02-19T01:38:48.654Z,9.32
2023-02-19T01:41:16.955Z,9.80
2023-02-19T01:44:00.340Z,9.23
2023-02-19T01:46:30.626Z,10.82
2023-02-19T01:48:59.115Z,10.23
2023-02-19T01:51:25.914Z,9.55
2023-02-19T01:53:55.069Z,9.85
2023-02-19T01:56:22.312Z,10.07
2023-02-19T01:58:48.779Z,9.98
2023-02-19T02:01:15.437Z,10.50
2023-02-19T02:03:44.799Z,9.45
2023-02-19T02:06:14.773Z,11.10
2023-02-19T02:08:59.874Z,10.68
2023-02-19T02:11:26.550Z,9.23
2023-02-19T02:13:53.553Z,10.88
2023-02-19T02:16:23.518Z,10.18
2023-02-19T02:18:52.910Z,9.52
2023-02-19T02:21:38.138Z,10.00
2023-02-19T02:24:23.647Z,10.45
2023-02-19T02:27:03.575Z,10.52
2023-02-19T02:29:47.063Z,9.27
2023-02-19T02:32:17.079Z,9.18
2023-02-19T02:34:52.815Z,8.95
2023-02-19T02:37:19.568Z,8.55
2023-02-19T02:39:47.646Z,7.78
2023-02-19T02:42:29.247Z,8.05
2023-02-19T02:45:34.803Z,7.95
2023-02-19T02:48:24.572Z,7.10
2023-02-19T02:50:51.270Z,6.45
2023-02-19T02:53:39.056Z,6.22
2023-02-19T02:56:05.576Z,6.70
2023-02-19T02:58:33.871Z,5.72
2023-02-19T03:01:26.878Z,5.68
2023-02-19T03:03:57.723Z,6.30
2023-02-19T03:06:25.862Z,4.70
2023-02-19T03:08:55.695Z,4.18
2023-02-19T03:11:41.049Z,5.15
2023-02-19T03:14:31.089Z,5.85
2023-02-19T03:17:18.842Z,5.25
2023-02-19T03:19:48.330Z,5.63
2023-02-19T03:22:20.271Z,5.78
2023-02-19T03:25:11.341Z,6.10
2023-02-19T03:27:39.046Z,7.95
2023-02-19T03:30:09.965Z,7.05
2023-02-19T03:32:42.689Z,6.10
2023-02-19T03:35:14.647Z,6.55
2023-02-19T03:37:50.866Z,5.47
2023-02-19T03:40:19.622Z,6.20
2023-02-19T03:43:00.020Z,5.63
2023-02-19T03:45:27.511Z,5.72
2023-02-19T03:47:59.624Z,6.85
2023-02-19T03:50:29.020Z,5.38
2023-02-19T03:52:59.538Z,5.80
2023-02-19T03:55:29.900Z,5.35
2023-02-19T03:58:01.224Z,7.43
2023-02-19T04:00:50.747Z,4.97
2023-02-19T04:03:27.085Z,6.63
2023-02-19T04:06:05.550Z,6.82
2023-02-19T04:08:33.468Z,6.03
2023-02-19T04:11:03.675Z,6.72
2023-02-19T04:13:37.503Z,5.82
2023-02-19T04:16:07.799Z,5.82
2023-02-19T04:18:38.845Z,5.90
2023-02-19T04:21:05.972Z,5.88
2023-02-19T04:23:35.552Z,6.00
2023-02-19T04:26:03.063Z,5.90
2023-02-19T04:28:30.984Z,6.75
2023-02-19T04:30:57.351Z,5.93
2023-02-19T04:33:24.851Z,6.57
2023-02-19T04:35:51.234Z,6.50
2023-02-19T04:38:17.813Z,6.95
2023-02-19T04:40:44.211Z,5.45
2023-02-19T04:43:10.669Z,7.90
2023-02-19T04:45:37.783Z,7.28
2023-02-19T04:48:04.694Z,6.35
2023-02-19T04:50:31.156Z,6.15
2023-02-19T04:52:57.483Z,6.22
2023-02-19T04:55:23.876Z,5.90
2023-02-19T04:57:50.219Z,5.57
2023-02-19T05:00:16.588Z,5.80
2023-02-19T05:02:42.970Z,4.53
2023-02-19T05:05:10.577Z,5.53
2023-02-19T05:07:36.962Z,5.25
2023-02-19T05:10:03.528Z,5.82
2023-02-19T05:12:31.001Z,4.95
2023-02-19T05:14:57.424Z,5.20
2023-02-19T05:17:23.819Z,5.85
2023-02-19T05:19:50.608Z,5.78
2023-02-19T05:22:17.089Z,5.53
2023-02-19T05:24:43.838Z,5.07
2023-02-19T05:27:10.163Z,5.15
2023-02-19T05:29:36.624Z,6.75
2023-02-19T05:32:03.041Z,5.38
2023-02-19T05:34:29.596Z,5.18
2023-02-19T05:36:55.992Z,5.22
2023-02-19T05:39:23.682Z,4.80
2023-02-19T05:41:50.006Z,6.22
2023-02-19T05:44:16.401Z,5.78
2023-02-19T05:46:42.771Z,5.57
2023-02-19T05:49:09.152Z,5.38
2023-02-19T05:51:35.594Z,7.18
2023-02-19T05:54:01.954Z,5.45
2023-02-19T05:56:32.500Z,6.45
2023-02-19T05:59:00.786Z,6.93
2023-02-19T06:01:28.026Z,6.07
2023-02-19T06:03:57.235Z,6.35
2023-02-19T06:06:24.364Z,6.63
2023-02-19T06:08:51.085Z,8.60
2023-02-19T06:11:17.973Z,8.07
2023-02-19T06:13:44.448Z,6.30
2023-02-19T06:16:14.081Z,8.05
2023-02-19T06:18:41.159Z,8.43
2023-02-19T06:21:09.190Z,6.28
2023-02-19T06:23:36.004Z,7.57
2023-02-19T06:26:06.617Z,8.52
2023-02-19T06:28:33.014Z,9.68
2023-02-19T06:30:59.419Z,9.75
2023-02-19T06:33:28.515Z,10.15
2023-02-19T06:36:00.676Z,10.05
2023-02-19T06:38:27.316Z,11.13
2023-02-19T06:40:53.660Z,10.93
2023-02-19T06:43:20.062Z,9.68
2023-02-19T06:45:46.728Z,9.40
2023-02-19T06:48:13.285Z,11.85
2023-02-19T06:50:39.672Z,12.10
2023-02-19T06:53:06.092Z,10.68
2023-02-19T06:55:32.453Z,11.65
2023-02-19T06:57:58.883Z,12.95
2023-02-19T07:00:25.251Z,11.25
2023-02-19T07:02:56.410Z,11.10
2023-02-19T07:05:23.243Z,12.90
2023-02-19T07:07:49.667Z,11.48
2023-02-19T07:10:16.269Z,11.32
2023-02-19T07:12:42.668Z,11.60
2023-02-19T07:15:09.250Z,14.38
2023-02-19T07:17:35.656Z,10.95
2023-02-19T07:20:02.088Z,12.02
2023-02-19T07:22:28.451Z,10.63
2023-02-19T07:24:57.453Z,11.13
2023-02-19T07:27:23.772Z,11.70
2023-02-19T07:29:50.169Z,12.20
2023-02-19T07:32:16.484Z,12.73
2023-02-19T07:34:45.283Z,11.75
2023-02-19T07:37:11.619Z,13.27
2023-02-19T07:39:37.998Z,11.27
2023-02-19T07:42:04.464Z,13.07
2023-02-19T07:44:32.105Z,11.18
2023-02-19T07:46:58.692Z,10.98
2023-02-19T07:49:24.992Z,10.38
2023-02-19T07:51:51.308Z,10.25
2023-02-19T07:54:17.703Z,11.35
2023-02-19T07:56:45.342Z,12.07
2023-02-19T07:59:12.016Z,11.23
2023-02-19T08:01:56.859Z,11.25
2023-02-19T08:04:23.165Z,12.55
2023-02-19T08:06:49.568Z,13.15
2023-02-19T08:09:18.532Z,12.13
2023-02-19T08:12:03.527Z,12.68
2023-02-19T08:14:29.940Z,14.60
2023-02-19T08:16:56.697Z,14.07
2023-02-19T08:19:23.205Z,14.27
2023-02-19T08:21:50.597Z,15.15
2023-02-19T08:24:17.093Z,13.85
2023-02-19T08:26:44.865Z,14.75
2023-02-19T08:29:13.036Z,18.73
2023-02-19T08:31:39.580Z,14.75
2023-02-19T08:34:07.134Z,15.90
2023-02-19T08:36:34.695Z,17.20
2023-02-19T08:39:01.071Z,16.38
2023-02-19T08:41:28.112Z,13.68
2023-02-19T08:43:54.868Z,13.40
2023-02-19T08:46:22.729Z,12.43
2023-02-19T08:48:49.314Z,12.57
2023-02-19T08:51:15.899Z,13.85
2023-02-19T08:53:43.239Z,14.30
2023-02-19T08:56:11.489Z,13.57
2023-02-19T08:58:37.953Z,15.85
2023-02-19T09:01:09.653Z,15.35
2023-02-19T09:03:36.640Z,14.07
2023-02-19T09:06:03.331Z,14.50
2023-02-19T09:08:29.888Z,14.75
2023-02-19T09:11:03.313Z,15.25
2023-02-19T09:13:30.795Z,15.70
2023-02-19T09:15:58.783Z,14.85
2023-02-19T09:18:26.766Z,14.98
2023-02-19T09:20:53.125Z,14.63
2023-02-19T09:23:19.532Z,14.55
2023-02-19T09:25:45.956Z,15.15
2023-02-19T09:28:12.334Z,16.40
2023-02-19T09:30:38.743Z,15.00
2023-02-19T09:33:05.497Z,16.67
2023-02-19T09:35:31.873Z,15.35
2023-02-19T09:38:00.978Z,16.17
2023-02-19T09:40:27.583Z,15.75
2023-02-19T09:42:53.913Z,17.08
2023-02-19T09:45:23.058Z,13.98
2023-02-19T09:47:53.298Z,14.68
2023-02-19T09:50:22.737Z,11.73
2023-02-19T09:52:54.755Z,7.75
2023-02-19T09:55:29.236Z,5.47
2023-02-19T09:57:56.513Z,3.17
2023-02-19T10:00:27.075Z,2.20
2023-02-19T10:03:30.546Z,2.40
2023-02-19T10:05:58.928Z,2.05
2023-02-19T10:08:25.330Z,2.70
2023-02-19T10:10:53.400Z,2.20
2023-02-19T10:13:37.297Z,2.78
2023-02-19T10:16:05.464Z,2.45
2023-02-19T10:18:41.124Z,2.38
2023-02-19T10:21:07.958Z,2.65
2023-02-19T10:23:35.815Z,2.42
2023-02-19T10:26:02.336Z,2.75
2023-02-19T10:28:30.241Z,3.17
2023-02-19T10:30:58.077Z,2.88
2023-02-19T10:33:24.790Z,2.83
2023-02-19T10:35:55.600Z,2.80
2023-02-19T10:38:32.603Z,2.60
2023-02-19T10:41:01.018Z,3.22
2023-02-19T10:43:34.825Z,3.20
2023-02-19T10:46:02.474Z,4.35
2023-02-19T10:48:32.234Z,2.95
2023-02-19T10:51:05.063Z,3.33
2023-02-19T10:53:45.173Z,3.45
2023-02-19T10:56:13.413Z,3.60
2023-02-19T10:58:42.323Z,4.60
2023-02-19T11:01:12.196Z,3.50
2023-02-19T11:03:39.122Z,4.80
2023-02-19T11:06:08.240Z,4.30
2023-02-19T11:08:44.993Z,3.42
2023-02-19T11:11:21.518Z,3.50
2023-02-19T11:13:47.915Z,3.25
2023-02-19T11:16:14.510Z,3.20
2023-02-19T11:18:43.760Z,3.10
2023-02-19T11:21:24.357Z,2.63
2023-02-19T11:23:50.876Z,2.40
2023-02-19T11:26:22.580Z,1.98
2023-02-19T11:29:15.121Z,2.08
2023-02-19T11:31:41.652Z,2.38
2023-02-19T11:34:11.575Z,2.42
2023-02-19T11:36:38.321Z,3.00
2023-02-19T11:39:16.821Z,2.53
2023-02-19T11:42:02.646Z,2.70
2023-02-19T11:44:47.823Z,2.97
2023-02-19T11:47:16.949Z,3.15
2023-02-19T11:49:47.927Z,3.65
2023-02-19T11:52:28.830Z,3.78
2023-02-19T11:55:18.575Z,2.33
2023-02-19T11:57:52.337Z,1.58
2023-02-19T12:00:18.681Z,2.20
2023-02-19T12:02:51.399Z,2.17
2023-02-19T12:07:53.104Z,1.88
2023-02-19T12:10:32.271Z,2.00
2023-02-19T12:13:14.309Z,1.90
2023-02-19T12:15:41.050Z,1.83
2023-02-19T12:18:22.978Z,2.05
2023-02-19T12:21:21.610Z,2.33
2023-02-19T12:24:06.599Z,2.38
2023-02-19T12:26:41.057Z,2.38
2023-02-19T12:29:25.997Z,2.28
2023-02-19T12:32:02.982Z,2.17
2023-02-19T12:34:41.538Z,2.00
2023-02-19T12:37:19.122Z,1.80
2023-02-19T12:39:55.530Z,1.63
2023-02-19T12:42:40.351Z,2.08
2023-02-19T12:45:16.116Z,1.90
2023-02-19T12:47:46.308Z,2.38
2023-02-19T12:50:12.965Z,1.85
2023-02-19T12:52:41.469Z,2.30
2023-02-19T12:55:29.312Z,2.17
2023-02-19T12:57:56.608Z,1.90
2023-02-19T13:00:35.747Z,2.30
2023-02-19T13:03:02.713Z,2.00
2023-02-19T13:05:47.233Z,2.00
2023-02-19T13:08:16.607Z,2.65
2023-02-19T13:10:45.396Z,2.10
2023-02-19T13:13:22.795Z,2.00
2023-02-19T13:15:52.539Z,2.08
2023-02-19T13:18:21.708Z,2.10
2023-02-19T13:20:51.577Z,2.13
2023-02-19T13:23:47.581Z,1.88
2023-02-19T13:26:26.393Z,2.00
2023-02-19T13:29:15.782Z,2.28
2023-02-19T13:31:55.108Z,2.00
2023-02-19T13:34:42.705Z,2.15
2023-02-19T13:37:11.223Z,2.05
2023-02-19T13:39:44.844Z,2.20
2023-02-19T13:42:23.490Z,1.92
2023-02-19T13:44:55.130Z,1.80
2023-02-19T13:47:41.548Z,1.92
2023-02-19T13:50:18.364Z,1.73
2023-02-19T13:52:44.768Z,1.55
2023-02-19T13:55:29.680Z,1.20
2023-02-19T13:58:16.243Z,1.92
2023-02-19T14:00:50.381Z,1.55
2023-02-19T14:03:29.150Z,1.52
2023-02-19T14:05:58.743Z,1.40
2023-02-19T14:08:56.526Z,1.27
2023-02-19T14:11:58.536Z,1.63
2023-02-19T14:14:34.287Z,1.33
2023-02-19T14:17:07.160Z,1.50
2023-02-19T14:19:42.714Z,1.08
2023-02-19T14:22:27.788Z,0.98
2023-02-19T14:24:54.660Z,1.23
2023-02-19T14:27:23.369Z,0.93
2023-02-19T14:29:49.835Z,1.42
2023-02-19T14:32:20.473Z,1.00
2023-02-19T14:34:49.226Z,0.80
2023-02-19T14:37:19.231Z,1.00
2023-02-19T14:39:46.276Z,0.80
2023-02-19T14:42:12.682Z,0.65
2023-02-19T14:44:57.222Z,0.80
2023-02-19T14:47:30.924Z,0.60
2023-02-19T14:52:34.306Z,0.82
2023-02-19T14:55:08.812Z,1.00
2023-02-19T14:57:39.461Z,1.42
2023-02-19T15:00:24.606Z,1.00
2023-02-19T15:02:52.167Z,1.05
2023-02-19T15:05:21.551Z,1.10
2023-02-19T15:07:48.020Z,0.90
2023-02-19T15:10:14.527Z,0.93
2023-02-19T15:12:49.265Z,1.00
2023-02-19T15:15:23.242Z,1.80
2023-02-19T15:17:52.805Z,0.90
2023-02-19T15:20:20.762Z,1.15
2023-02-19T15:22:47.406Z,1.15
2023-02-19T15:25:18.521Z,1.92
2023-02-19T15:27:46.605Z,1.52
2023-02-19T15:30:23.624Z,1.70
2023-02-19T15:32:56.907Z,1.20
2023-02-19T15:35:27.470Z,1.27
2023-02-19T15:37:55.191Z,1.30
2023-02-19T15:40:24.584Z,2.50
2023-02-19T15:42:51.622Z,1.30
2023-02-19T15:45:22.950Z,1.27
2023-02-19T15:47:51.673Z,1.10
2023-02-19T15:50:22.414Z,1.20
2023-02-19T15:53:02.303Z,1.30
2023-02-19T15:55:42.939Z,1.50
2023-02-19T15:58:14.735Z,1.30
2023-02-19T16:00:45.252Z,1.73
2023-02-19T16:03:19.035Z,1.50
2023-02-19T16:05:45.441Z,1.33
2023-02-19T16:08:11.880Z,1.80
2023-02-19T16:10:38.655Z,1.48
2023-02-19T16:13:07.123Z,1.42
2023-02-19T16:15:35.161Z,1.52
2023-02-19T16:18:01.756Z,1.80
2023-02-19T16:20:30.699Z,1.60
2023-02-19T16:23:11.931Z,2.00
2023-02-19T16:25:44.113Z,1.95
2023-02-19T16:28:11.817Z,2.90
2023-02-19T16:30:38.698Z,2.50
2023-02-19T16:33:23.649Z,2.10
2023-02-19T16:35:52.518Z,2.95
2023-02-19T16:38:20.051Z,3.65
2023-02-19T16:40:51.130Z,2.67
2023-02-19T16:43:29.110Z,3.13
2023-02-19T16:45:55.473Z,2.10
2023-02-19T16:48:22.813Z,2.33
2023-02-19T16:50:49.242Z,3.03
2023-02-19T16:53:18.677Z,3.20
2023-02-19T16:55:47.391Z,3.30
2023-02-19T16:58:13.990Z,3.67
2023-02-19T17:00:40.401Z,4.28
2023-02-19T17:03:11.122Z,3.85
2023-02-19T17:05:38.475Z,3.55
2023-02-19T17:08:09.660Z,3.63
2023-02-19T17:10:36.039Z,3.45
2023-02-19T17:13:03.781Z,3.72
2023-02-19T17:15:30.119Z,3.33
2023-02-19T17:17:56.499Z,3.40
2023-02-19T17:20:27.519Z,3.63
2023-02-19T17:22:54.382Z,3.13
2023-02-19T17:25:21.179Z,4.80
2023-02-19T17:27:47.525Z,4.22
2023-02-19T17:30:19.604Z,3.58
2023-02-19T17:32:45.935Z,3.53
2023-02-19T17:35:12.970Z,3.25
2023-02-19T17:37:39.355Z,3.30
2023-02-19T17:40:31.851Z,3.00
2023-02-19T17:42:59.573Z,3.17
2023-02-19T17:45:25.900Z,3.30
2023-02-19T17:47:52.973Z,2.70
2023-02-19T17:50:21.121Z,3.03
2023-02-19T17:52:47.567Z,2.63
2023-02-19T17:55:17.944Z,2.90
2023-02-19T17:57:44.768Z,2.65
2023-02-19T18:00:13.152Z,3.10
2023-02-19T18:02:39.788Z,2.83
2023-02-19T18:05:06.418Z,2.67
2023-02-19T18:07:32.808Z,2.15
2023-02-19T18:09:59.221Z,5.78
2023-02-19T18:12:25.905Z,2.38
2023-02-19T18:14:54.620Z,2.30
2023-02-19T18:17:20.992Z,3.03
2023-02-19T18:19:48.331Z,2.60
2023-02-19T18:22:15.034Z,5.32
2023-02-19T18:24:50.807Z,9.13
2023-02-19T18:27:18.407Z,4.80
2023-02-19T18:29:46.815Z,30.52
2023-02-19T18:32:13.109Z,2.72
2023-02-19T18:34:39.566Z,1.85
2023-02-19T18:37:05.944Z,1.80
2023-02-19T18:39:32.860Z,2.50
2023-02-19T18:42:00.681Z,2.25
2023-02-19T18:44:27.043Z,2.00
2023-02-19T18:46:53.663Z,1.98
2023-02-19T18:49:20.081Z,1.88
2023-02-19T18:51:46.960Z,2.15
2023-02-19T18:54:13.308Z,1.77
2023-02-19T18:56:40.535Z,1.27
2023-02-19T18:59:06.886Z,1.77
2023-02-19T19:01:33.909Z,1.42
2023-02-19T19:04:00.409Z,1.80
2023-02-19T19:06:28.215Z,1.70
2023-02-19T19:08:54.736Z,2.08
2023-02-19T19:11:22.787Z,1.95
2023-02-19T19:13:49.139Z,2.08
2023-02-19T19:16:17.554Z,3.03
2023-02-19T19:18:44.040Z,3.90
2023-02-19T19:21:16.291Z,23.40
2023-02-19T19:23:44.204Z,11.35
2023-02-19T19:26:11.188Z,4.88
2023-02-19T19:28:40.663Z,3.67
2023-02-19T19:31:07.103Z,2.75
2023-02-19T19:33:33.514Z,2.95
2023-02-19T19:35:59.854Z,3.45
2023-02-19T19:38:26.207Z,3.08
2023-02-19T19:40:52.869Z,3.38
2023-02-19T19:43:19.724Z,3.58
2023-02-19T19:45:46.174Z,3.30
2023-02-19T19:48:12.573Z,2.95
2023-02-19T19:50:38.957Z,3.20
2023-02-19T19:53:05.586Z,3.60
2023-02-19T19:55:31.948Z,3.20
2023-02-19T19:58:00.872Z,3.42
2023-02-19T20:00:27.694Z,10.32
2023-02-19T20:02:54.139Z,3.33
2023-02-19T20:05:20.771Z,3.40
2023-02-19T20:07:47.312Z,4.22
2023-02-19T20:10:14.389Z,6.60
2023-02-19T20:12:40.814Z,3.72
2023-02-19T20:15:07.830Z,4.03
2023-02-19T20:17:34.275Z,4.35
2023-02-19T20:20:00.698Z,3.63
2023-02-19T20:22:27.088Z,4.30
2023-02-19T20:24:54.275Z,4.38
2023-02-19T20:27:21.782Z,4.70
2023-02-19T20:29:48.189Z,11.18
2023-02-19T20:32:15.176Z,5.40
2023-02-19T20:34:41.529Z,5.35
2023-02-19T20:37:07.876Z,5.45
2023-02-19T20:39:34.665Z,8.35
2023-02-19T20:42:01.311Z,8.27
2023-02-19T20:44:28.843Z,7.07
2023-02-19T20:46:55.817Z,23.50
2023-02-19T20:49:23.364Z,10.00
2023-02-19T20:51:51.847Z,9.45
2023-02-19T20:54:18.318Z,10.95
2023-02-19T20:56:45.525Z,8.18
2023-02-19T20:59:13.803Z,8.93
2023-02-19T21:01:40.667Z,8.25
2023-02-19T21:04:07.556Z,9.00
2023-02-19T21:06:33.906Z,6.45
2023-02-19T21:09:00.458Z,6.70
2023-02-19T21:11:26.875Z,6.20
2023-02-19T21:13:53.408Z,7.63
2023-02-19T21:16:20.055Z,7.63
2023-02-19T21:18:46.831Z,6.95
2023-02-19T21:21:17.347Z,8.40
2023-02-19T21:23:45.073Z,7.80
2023-02-19T21:26:13.859Z,7.13
2023-02-19T21:28:40.533Z,7.60
2023-02-19T21:31:06.961Z,6.95
2023-02-19T21:33:35.751Z,7.00
2023-02-19T21:36:03.074Z,7.47
2023-02-19T21:38:32.612Z,7.40
2023-02-19T21:40:59.042Z,6.50
2023-02-19T21:43:25.510Z,7.18
2023-02-19T21:45:56.017Z,6.10
2023-02-19T21:48:22.604Z,6.45
2023-02-19T21:50:49.147Z,6.13
2023-02-19T21:53:15.683Z,6.00
2023-02-19T21:55:56.601Z,6.32
2023-02-19T21:58:24.472Z,6.43
2023-02-19T22:00:50.821Z,6.32
2023-02-19T22:03:17.185Z,6.43
2023-02-19T22:05:43.637Z,6.75
2023-02-19T22:08:10.049Z,6.90
2023-02-19T22:10:36.411Z,6.38
2023-02-19T22:13:02.820Z,7.43
2023-02-19T22:15:29.271Z,6.60
2023-02-19T22:17:57.744Z,6.35
2023-02-19T22:20:24.081Z,6.25
2023-02-19T22:22:50.423Z,6.20
2023-02-19T22:25:16.884Z,6.50
2023-02-19T22:27:43.313Z,6.38
2023-02-19T22:30:10.075Z,7.20
2023-02-19T22:32:38.562Z,6.72
2023-02-19T22:35:06.597Z,6.60
2023-02-19T22:37:32.965Z,8.10
2023-02-19T22:39:59.668Z,5.63
2023-02-19T22:42:26.097Z,7.90
2023-02-19T22:44:55.507Z,7.43
2023-02-19T22:47:21.820Z,6.97
2023-02-19T22:49:48.194Z,7.35
2023-02-19T22:52:14.492Z,7.35
2023-02-19T22:54:40.852Z,7.72
2023-02-19T22:57:07.288Z,7.70
2023-02-19T22:59:33.736Z,7.60
2023-02-19T23:02:00.129Z,8.45
2023-02-19T23:04:27.272Z,8.05
2023-02-19T23:06:53.711Z,7.65
2023-02-19T23:09:21.685Z,7.20
2023-02-19T23:11:48.192Z,7.60
2023-02-19T23:14:18.564Z,8.73
2023-02-19T23:16:47.069Z,8.35
2023-02-19T23:19:14.595Z,8.35
2023-02-19T23:21:42.132Z,8.77
2023-02-19T23:24:09.195Z,9.02
2023-02-19T23:26:41.575Z,9.00
2023-02-19T23:29:07.931Z,8.63
2023-02-19T23:31:34.937Z,9.45
2023-02-19T23:34:01.451Z,9.27
2023-02-19T23:36:28.139Z,9.63
2023-02-19T23:38:55.016Z,9.48
2023-02-19T23:41:21.368Z,9.90
2023-02-19T23:43:52.401Z,10.23
2023-02-19T23:46:18.946Z,9.65
2023-02-19T23:48:45.986Z,9.23
2023-02-19T23:51:12.427Z,10.38
2023-02-19T23:53:39.361Z,10.90
2023-02-19T23:56:05.941Z,10.50
2023-02-19T23:58:32.256Z,11.68
